Time;durP1;ratioP1;P1;durP2;ratioP2;P2;SDS_P1;SDS_P2;PMS_P1;PMS_P2;Temp;Humidity;BMP_temperature;BMP_pressure;BME280_temperature;BME280_humidity;BME280_pressure;Samples;Min_cycle;Max_cycle;Signal;HPM_P1;HPM_P2
2023/07/17 00:00:05;;;;;;;5.90;3.28;;;16.70;99.90;;;;;;7371887;19;20070;-58
2023/07/17 00:02:31;;;;;;;9.55;3.80;;;16.70;99.90;;;;;;7366850;19;20121;-58
2023/07/17 00:04:57;;;;;;;7.25;3.55;;;16.80;99.90;;;;;;7377243;19;20022;-58
2023/07/17 00:07:25;;;;;;;7.60;3.53;;;16.70;99.90;;;;;;7370897;19;20018;-58
2023/07/17 00:09:52;;;;;;;6.50;3.22;;;16.80;99.90;;;;;;7373026;19;20346;-58
2023/07/17 00:12:18;;;;;;;5.72;3.05;;;16.80;99.90;;;;;;7367412;19;20022;-58
2023/07/17 00:14:44;;;;;;;4.85;3.00;;;16.80;99.90;;;;;;7372835;19;20368;-59
2023/07/17 00:17:10;;;;;;;9.30;3.05;;;16.80;99.90;;;;;;7373383;19;20118;-59
2023/07/17 00:19:38;;;;;;;5.45;3.05;;;16.90;99.90;;;;;;7374399;19;20019;-58
2023/07/17 00:22:06;;;;;;;6.75;2.92;;;16.90;99.90;;;;;;7369104;19;20127;-59
2023/07/17 00:24:32;;;;;;;6.40;2.58;;;16.90;99.90;;;;;;7362159;19;20464;-59
2023/07/17 00:26:58;;;;;;;6.72;2.88;;;16.90;99.90;;;;;;7364861;19;20018;-59
2023/07/17 00:29:28;;;;;;;7.38;2.78;;;17.00;99.90;;;;;;7361879;19;20039;-58
2023/07/17 00:31:56;;;;;;;;;;;17.00;99.90;;;;;;7368748;19;20468;-58
2023/07/17 00:34:23;;;;;;;4.90;2.38;;;17.10;99.90;;;;;;7372260;19;19994;-58
2023/07/17 00:36:50;;;;;;;7.05;2.65;;;17.10;99.90;;;;;;7371929;19;20041;-59
2023/07/17 00:39:18;;;;;;;8.38;3.22;;;17.10;99.90;;;;;;7374481;19;20026;-58
2023/07/17 00:41:46;;;;;;;6.75;3.00;;;17.10;99.90;;;;;;7371269;19;20029;-58
2023/07/17 00:44:12;;;;;;;6.32;3.17;;;17.10;99.90;;;;;;7370782;19;20529;-59
2023/07/17 00:46:38;;;;;;;7.90;2.65;;;17.10;99.90;;;;;;7375051;19;20038;-59
2023/07/17 00:49:06;;;;;;;7.03;2.83;;;17.00;99.90;;;;;;7375055;19;20022;-59
2023/07/17 00:51:33;;;;;;;7.55;2.90;;;16.90;99.90;;;;;;7374841;19;20350;-59
2023/07/17 00:54:02;;;;;;;9.50;2.70;;;16.70;99.90;;;;;;7372245;19;20524;-59
2023/07/17 00:56:28;;;;;;;7.07;2.72;;;16.60;99.90;;;;;;7372914;19;20078;-59
2023/07/17 00:58:57;;;;;;;9.52;3.00;;;16.50;99.90;;;;;;7369812;19;20023;-59
2023/07/17 01:01:27;;;;;;;9.60;3.42;;;16.50;99.90;;;;;;7375058;19;20022;-59
2023/07/17 01:04:00;;;;;;;8.05;3.10;;;16.40;99.90;;;;;;7367240;19;20501;-59
2023/07/17 01:06:26;;;;;;;9.60;3.60;;;16.30;99.90;;;;;;7362766;19;20510;-59
2023/07/17 01:08:54;;;;;;;8.93;3.20;;;16.30;99.90;;;;;;7356048;19;20029;-59
2023/07/17 01:11:20;;;;;;;8.85;4.10;;;16.20;99.90;;;;;;7359580;19;20038;-59
2023/07/17 01:13:49;;;;;;;8.80;2.97;;;16.30;99.90;;;;;;7364837;19;20021;-59
2023/07/17 01:16:16;;;;;;;10.35;3.42;;;16.20;99.90;;;;;;7367625;19;20070;-59
2023/07/17 01:18:43;;;;;;;10.07;3.33;;;16.20;99.90;;;;;;7365078;19;20038;-59
2023/07/17 01:21:12;;;;;;;10.75;2.95;;;16.10;99.90;;;;;;7365784;19;20496;-59
2023/07/17 01:23:38;;;;;;;8.73;3.08;;;16.20;99.90;;;;;;7364988;19;20011;-58
2023/07/17 01:26:15;;;;;;;6.82;2.60;;;16.10;99.90;;;;;;7365580;19;20376;-59
2023/07/17 01:28:45;;;;;;;6.88;2.78;;;16.10;99.90;;;;;;7365477;19;20022;-59
2023/07/17 01:31:12;;;;;;;6.70;2.38;;;16.10;99.90;;;;;;7365769;19;20033;-59
2023/07/17 01:33:39;;;;;;;8.18;2.60;;;16.10;99.90;;;;;;7369071;19;20014;-60
2023/07/17 01:36:06;;;;;;;9.20;2.83;;;16.10;99.90;;;;;;7366482;19;20482;-59
2023/07/17 01:38:36;;;;;;;7.38;2.42;;;16.10;99.90;;;;;;7370638;19;20528;-59
2023/07/17 01:41:02;;;;;;;7.78;2.20;;;16.00;99.90;;;;;;7365448;19;20719;-60
2023/07/17 01:43:30;;;;;;;8.15;2.47;;;16.00;99.90;;;;;;7364134;19;20378;-59
2023/07/17 01:45:57;;;;;;;5.57;2.20;;;16.00;99.90;;;;;;7365339;19;20022;-60
2023/07/17 01:48:23;;;;;;;4.47;2.38;;;16.00;99.90;;;;;;7366679;19;20046;-60
2023/07/17 01:50:50;;;;;;;8.70;2.70;;;16.00;99.90;;;;;;7362109;19;20406;-59
2023/07/17 01:53:19;;;;;;;7.63;2.33;;;16.00;99.90;;;;;;7365751;19;20022;-60
2023/07/17 01:55:46;;;;;;;5.93;2.25;;;15.90;99.90;;;;;;7369188;19;20030;-59
2023/07/17 01:58:12;;;;;;;7.82;2.60;;;15.90;99.90;;;;;;7369422;19;20026;-60
2023/07/17 02:00:39;;;;;;;7.75;2.50;;;15.90;99.90;;;;;;7369404;19;20018;-59
2023/07/17 02:03:05;;;;;;;6.65;2.15;;;15.90;99.90;;;;;;7371180;19;20038;-59
2023/07/17 02:05:31;;;;;;;5.20;2.45;;;15.80;99.90;;;;;;7369427;19;20545;-59
2023/07/17 02:07:57;;;;;;;8.15;2.70;;;15.80;99.90;;;;;;7368200;19;20023;-60
2023/07/17 02:10:27;;;;;;;4.90;1.98;;;15.80;99.90;;;;;;7371676;19;20018;-59
2023/07/17 02:12:53;;;;;;;4.60;2.10;;;15.80;99.90;;;;;;7373317;19;20094;-59
2023/07/17 02:15:19;;;;;;;7.50;2.35;;;15.80;99.90;;;;;;7375418;19;20724;-60
2023/07/17 02:17:46;;;;;;;5.00;2.20;;;15.80;99.90;;;;;;7366385;19;20026;-58
2023/07/17 02:20:13;;;;;;;6.78;2.33;;;15.80;99.90;;;;;;7363626;19;20141;-58
2023/07/17 02:22:40;;;;;;;7.32;2.40;;;15.70;99.90;;;;;;7371856;19;20085;-59
2023/07/17 02:25:07;;;;;;;6.53;3.00;;;15.70;99.90;;;;;;7366538;19;20033;-58
2023/07/17 02:27:34;;;;;;;9.18;2.92;;;15.70;99.90;;;;;;7372098;19;20031;-58
2023/07/17 02:30:00;;;;;;;5.35;2.03;;;15.70;99.90;;;;;;7365528;19;20025;-59
2023/07/17 02:32:33;;;;;;;7.07;2.90;;;15.70;99.90;;;;;;7372728;19;20024;-58
2023/07/17 02:35:00;;;;;;;5.82;2.58;;;15.70;99.90;;;;;;7368213;19;20022;-59
2023/07/17 02:37:26;;;;;;;10.65;2.40;;;15.70;99.90;;;;;;7372584;19;20094;-59
2023/07/17 02:39:53;;;;;;;10.95;3.72;;;15.60;99.90;;;;;;7367237;19;20375;-58
2023/07/17 02:42:19;;;;;;;9.82;2.75;;;15.60;99.90;;;;;;7371314;19;20046;-58
2023/07/17 02:44:46;;;;;;;6.72;2.60;;;15.50;99.90;;;;;;7370394;19;20362;-58
2023/07/17 02:47:13;;;;;;;9.10;2.80;;;15.50;99.90;;;;;;7374142;19;20053;-59
2023/07/17 02:49:39;;;;;;;8.93;3.22;;;15.50;99.90;;;;;;7373445;19;20474;-59
2023/07/17 02:52:06;;;;;;;9.95;3.42;;;15.50;99.90;;;;;;7367335;19;20518;-60
2023/07/17 02:54:34;;;;;;;8.38;2.90;;;15.50;99.90;;;;;;7371054;19;20488;-59
2023/07/17 02:57:00;;;;;;;9.70;3.00;;;15.40;99.90;;;;;;7368977;19;20025;-60
2023/07/17 02:59:27;;;;;;;8.57;3.33;;;15.50;99.90;;;;;;7371362;19;20018;-60
2023/07/17 03:01:53;;;;;;;9.77;2.90;;;15.40;99.90;;;;;;7373418;19;20569;-59
2023/07/17 03:04:19;;;;;;;8.40;2.60;;;15.40;99.90;;;;;;7364409;19;20026;-60
2023/07/17 03:06:45;;;;;;;7.82;3.08;;;15.40;99.90;;;;;;7367795;19;20031;-59
2023/07/17 03:09:12;;;;;;;10.02;3.33;;;15.30;99.90;;;;;;7365390;19;20594;-59
2023/07/17 03:11:40;;;;;;;7.80;3.17;;;15.30;99.90;;;;;;7368792;19;20481;-59
2023/07/17 03:14:07;;;;;;;7.70;3.10;;;15.20;99.90;;;;;;7367019;19;20022;-59
2023/07/17 03:16:33;;;;;;;9.13;3.03;;;15.20;99.90;;;;;;7369075;19;20018;-60
2023/07/17 03:18:59;;;;;;;10.73;3.13;;;15.20;99.90;;;;;;7367505;19;20474;-59
2023/07/17 03:21:26;;;;;;;9.25;3.13;;;15.20;99.90;;;;;;7367910;19;20023;-59
2023/07/17 03:23:53;;;;;;;8.98;3.35;;;15.20;99.90;;;;;;7368235;19;20082;-59
2023/07/17 03:26:20;;;;;;;12.48;3.88;;;15.20;99.90;;;;;;7369236;19;20015;-58
2023/07/17 03:28:46;;;;;;;10.23;3.45;;;15.20;99.90;;;;;;7368407;19;20485;-58
2023/07/17 03:31:13;;;;;;;10.05;3.22;;;15.20;99.90;;;;;;7365371;19;20022;-59
2023/07/17 03:33:39;;;;;;;10.00;3.10;;;15.20;99.90;;;;;;7370448;19;20015;-59
2023/07/17 03:36:06;;;;;;;10.13;3.53;;;15.10;99.90;;;;;;7365893;19;20021;-59
2023/07/17 03:38:32;;;;;;;10.93;3.63;;;15.10;99.90;;;;;;7371573;19;20022;-59
2023/07/17 03:41:00;;;;;;;9.85;3.00;;;15.10;99.90;;;;;;7364787;19;20282;-59
2023/07/17 03:43:26;;;;;;;9.55;3.80;;;15.10;99.90;;;;;;7370326;19;20018;-59
2023/07/17 03:45:52;;;;;;;9.60;3.40;;;15.10;99.90;;;;;;7369182;19;20024;-59
2023/07/17 03:48:19;;;;;;;9.50;3.80;;;15.00;99.90;;;;;;7366847;19;20014;-59
2023/07/17 03:50:48;;;;;;;12.20;3.70;;;15.00;99.90;;;;;;7367534;19;20028;-59
2023/07/17 03:53:15;;;;;;;9.23;3.78;;;15.00;99.90;;;;;;7368091;19;20082;-57
2023/07/17 03:55:41;;;;;;;14.32;3.75;;;15.00;99.90;;;;;;7364336;19;20082;-58
2023/07/17 03:58:08;;;;;;;9.68;3.22;;;14.90;99.90;;;;;;7366507;19;20025;-57
2023/07/17 04:00:34;;;;;;;8.18;3.30;;;14.90;99.90;;;;;;7365908;19;20029;-58
2023/07/17 04:03:01;;;;;;;9.85;3.38;;;14.90;99.90;;;;;;7364874;19;20078;-58
2023/07/17 04:05:36;;;;;;;11.07;3.55;;;14.90;99.90;;;;;;7368914;19;20537;-57
2023/07/17 04:08:02;;;;;;;10.38;4.25;;;14.80;99.90;;;;;;7363247;19;20345;-59
2023/07/17 04:10:30;;;;;;;9.55;3.47;;;14.80;99.90;;;;;;7367699;19;20038;-59
2023/07/17 04:12:57;;;;;;;7.80;3.50;;;14.80;99.90;;;;;;7363484;19;21035;-59
2023/07/17 04:15:24;;;;;;;9.98;3.50;;;14.70;99.90;;;;;;7364055;19;20026;-58
2023/07/17 04:17:50;;;;;;;9.18;3.97;;;14.70;99.90;;;;;;7365745;19;20015;-58
2023/07/17 04:20:16;;;;;;;12.52;4.15;;;14.80;99.90;;;;;;7363281;19;20454;-59
2023/07/17 04:22:43;;;;;;;11.52;4.18;;;14.80;99.90;;;;;;7365695;19;20021;-59
2023/07/17 04:25:09;;;;;;;11.35;4.07;;;14.80;99.90;;;;;;7363745;19;20014;-59
2023/07/17 04:27:37;;;;;;;9.35;3.63;;;14.80;99.90;;;;;;7364814;19;20022;-58
2023/07/17 04:30:05;;;;;;;10.50;3.92;;;14.90;99.90;;;;;;7364753;19;20023;-58
2023/07/17 04:32:33;;;;;;;13.73;3.60;;;14.90;99.90;;;;;;7365530;19;20018;-58
2023/07/17 04:35:03;;;;;;;11.68;4.20;;;15.00;99.90;;;;;;7366780;19;20022;-58
2023/07/17 04:37:29;;;;;;;12.90;4.25;;;15.00;99.90;;;;;;7368354;19;20018;-58
2023/07/17 04:39:56;;;;;;;10.32;4.55;;;15.10;99.90;;;;;;7366044;19;20021;-57
2023/07/17 04:42:23;;;;;;;16.60;4.15;;;15.10;99.90;;;;;;7365195;19;20026;-57
2023/07/17 04:44:49;;;;;;;10.02;4.53;;;15.20;99.90;;;;;;7371213;19;20014;-57
2023/07/17 04:47:15;;;;;;;8.80;3.63;;;15.20;99.90;;;;;;7369615;19;20044;-57
2023/07/17 04:49:42;;;;;;;11.85;3.88;;;15.20;99.90;;;;;;7375773;19;20018;-57
2023/07/17 04:52:09;;;;;;;10.20;4.38;;;15.30;99.90;;;;;;7375601;19;20021;-57
2023/07/17 04:54:35;;;;;;;11.40;3.72;;;15.30;99.90;;;;;;7374491;19;20014;-57
2023/07/17 04:57:03;;;;;;;8.30;3.85;;;15.30;99.90;;;;;;7371162;19;20476;-58
2023/07/17 04:59:31;;;;;;;10.43;3.90;;;15.40;99.90;;;;;;7374530;19;20037;-58
2023/07/17 05:01:57;;;;;;;7.78;4.55;;;15.50;99.90;;;;;;7373685;19;20595;-57
2023/07/17 05:04:23;;;;;;;9.02;4.07;;;15.50;99.90;;;;;;7373906;19;20021;-58
2023/07/17 05:06:50;;;;;;;10.85;4.00;;;15.60;99.90;;;;;;7376497;19;20028;-58
2023/07/17 05:09:16;;;;;;;8.38;4.35;;;15.70;99.90;;;;;;7373893;19;20427;-58
2023/07/17 05:11:44;;;;;;;12.02;4.47;;;15.80;99.90;;;;;;7374954;19;20445;-58
2023/07/17 05:14:11;;;;;;;6.20;3.80;;;15.90;99.90;;;;;;7373607;19;20663;-55
2023/07/17 05:16:37;;;;;;;12.60;4.43;;;16.10;99.90;;;;;;7374101;19;20021;-57
2023/07/17 05:19:04;;;;;;;10.20;3.70;;;16.30;99.90;;;;;;7373127;19;20018;-58
2023/07/17 05:21:33;;;;;;;13.88;3.90;;;16.50;99.90;;;;;;7371683;19;20659;-60
2023/07/17 05:24:00;;;;;;;9.13;4.25;;;16.70;99.90;;;;;;7370938;19;20045;-58
2023/07/17 05:26:27;;;;;;;10.95;4.05;;;16.90;99.90;;;;;;7372323;19;20045;-61
2023/07/17 05:28:53;;;;;;;9.02;4.22;;;16.90;99.90;;;;;;7373988;19;20033;-59
2023/07/17 05:31:21;;;;;;;7.75;3.50;;;17.10;99.90;;;;;;7372954;19;20018;-59
2023/07/17 05:33:48;;;;;;;10.55;3.97;;;17.00;99.90;;;;;;7372566;19;20465;-58
2023/07/17 05:36:14;;;;;;;10.23;3.78;;;17.20;99.90;;;;;;7369266;19;20350;-60
2023/07/17 05:38:41;;;;;;;10.90;4.25;;;17.40;99.90;;;;;;7375349;19;20014;-59
2023/07/17 05:41:08;;;;;;;9.70;3.85;;;17.50;99.90;;;;;;7369684;19;20019;-59
2023/07/17 05:43:35;;;;;;;7.47;4.00;;;17.40;99.90;;;;;;7368606;19;20019;-59
2023/07/17 05:46:10;;;;;;;9.98;3.67;;;17.50;99.90;;;;;;7364655;19;20022;-62
2023/07/17 05:48:36;;;;;;;10.85;4.38;;;17.60;99.90;;;;;;7375088;19;20042;-60
2023/07/17 05:51:03;;;;;;;10.30;5.47;;;17.80;99.90;;;;;;7368882;19;20082;-60
2023/07/17 05:53:32;;;;;;;14.18;4.82;;;17.90;99.90;;;;;;7373346;19;20015;-60
2023/07/17 05:55:58;;;;;;;9.30;3.88;;;17.90;99.90;;;;;;7368979;19;20041;-60
2023/07/17 05:58:28;;;;;;;11.50;4.20;;;17.60;99.90;;;;;;7373671;19;20022;-59
2023/07/17 06:00:55;;;;;;;11.40;4.40;;;17.40;99.90;;;;;;7375056;19;20476;-60
2023/07/17 06:03:22;;;;;;;12.43;4.07;;;17.50;99.90;;;;;;7373535;19;20097;-60
2023/07/17 06:05:48;;;;;;;8.55;4.22;;;17.70;99.90;;;;;;7378021;19;20453;-60
2023/07/17 06:08:14;;;;;;;9.98;4.38;;;17.80;99.90;;;;;;7375212;19;20019;-64
2023/07/17 06:10:43;;;;;;;11.45;4.30;;;17.90;99.90;;;;;;7378563;19;20040;-60
2023/07/17 06:13:10;;;;;;;10.50;4.45;;;17.90;99.90;;;;;;7376127;19;20409;-61
2023/07/17 06:15:38;;;;;;;10.70;4.63;;;17.90;99.90;;;;;;7373633;19;20412;-61
2023/07/17 06:18:04;;;;;;;7.85;4.50;;;17.90;99.90;;;;;;7371535;19;20342;-61
2023/07/17 06:20:30;;;;;;;11.20;4.57;;;18.20;99.90;;;;;;7372582;19;20016;-60
2023/07/17 06:22:56;;;;;;;13.05;5.05;;;18.10;99.90;;;;;;7371070;19;20025;-60
2023/07/17 06:25:23;;;;;;;12.38;5.25;;;18.20;99.90;;;;;;7372692;19;20432;-61
2023/07/17 06:27:49;;;;;;;8.73;4.70;;;18.20;99.90;;;;;;7375024;19;20014;-61
2023/07/17 06:30:15;;;;;;;8.98;4.30;;;18.20;99.90;;;;;;7370548;19;20255;-60
2023/07/17 06:32:41;;;;;;;11.60;4.80;;;18.40;99.90;;;;;;7370206;19;20039;-61
2023/07/17 06:35:08;;;;;;;10.60;4.88;;;18.60;99.90;;;;;;7370464;19;20024;-60
2023/07/17 06:37:34;;;;;;;12.85;4.53;;;19.00;99.90;;;;;;7374152;19;20335;-64
2023/07/17 06:40:01;;;;;;;10.90;4.80;;;19.00;99.90;;;;;;7367953;19;20287;-60
2023/07/17 06:42:27;;;;;;;11.10;4.25;;;18.80;99.90;;;;;;7371555;19;20018;-61
2023/07/17 06:44:53;;;;;;;12.10;6.00;;;18.70;99.90;;;;;;7370553;19;20452;-60
2023/07/17 06:47:19;;;;;;;10.40;4.70;;;18.40;99.90;;;;;;7370223;19;20453;-60
2023/07/17 06:49:46;;;;;;;12.18;5.35;;;18.10;99.90;;;;;;7367317;19;20010;-60
2023/07/17 06:52:12;;;;;;;12.68;4.90;;;18.20;99.90;;;;;;7374098;19;20022;-58
2023/07/17 06:54:38;;;;;;;13.27;5.53;;;18.40;99.90;;;;;;7370871;19;20489;-64
2023/07/17 06:57:05;;;;;;;13.02;6.05;;;18.60;99.90;;;;;;7370756;19;20029;-59
2023/07/17 06:59:32;;;;;;;10.63;5.50;;;18.80;99.90;;;;;;7373917;19;20022;-59
2023/07/17 07:01:58;;;;;;;18.15;7.13;;;19.10;99.90;;;;;;7358708;19;20026;-60
2023/07/17 07:04:24;;;;;;;15.82;6.35;;;19.20;99.90;;;;;;7369551;19;20106;-58
2023/07/17 07:06:51;;;;;;;11.73;5.10;;;19.10;99.90;;;;;;7370521;19;20022;-57
2023/07/17 07:09:17;;;;;;;13.38;5.38;;;19.20;99.90;;;;;;7374294;19;20772;-63
2023/07/17 07:11:43;;;;;;;12.55;5.78;;;19.30;99.90;;;;;;7374401;19;20025;-61
2023/07/17 07:14:10;;;;;;;11.07;6.03;;;19.10;99.90;;;;;;7374645;19;20070;-58
2023/07/17 07:16:37;;;;;;;13.45;5.50;;;19.00;99.90;;;;;;7368528;19;20014;-58
2023/07/17 07:19:03;;;;;;;11.52;5.50;;;19.00;99.90;;;;;;7363845;19;20044;-58
2023/07/17 07:21:32;;;;;;;13.95;5.68;;;19.00;99.90;;;;;;7365237;19;20019;-58
2023/07/17 07:24:00;;;;;;;13.13;5.68;;;19.00;99.90;;;;;;7368680;19;20015;-58
2023/07/17 07:26:26;;;;;;;15.98;8.52;;;19.30;99.90;;;;;;7372099;19;20501;-63
2023/07/17 07:28:52;;;;;;;13.30;5.80;;;19.20;99.90;;;;;;7369558;19;20377;-61
2023/07/17 07:31:18;;;;;;;10.52;4.78;;;19.20;99.90;;;;;;7370631;19;20117;-63
2023/07/17 07:33:45;;;;;;;9.32;4.57;;;19.10;99.90;;;;;;7373487;19;20078;-65
2023/07/17 07:36:11;;;;;;;12.20;5.05;;;19.40;99.90;;;;;;7372092;19;20022;-61
2023/07/17 07:38:37;;;;;;;11.60;5.15;;;19.40;99.90;;;;;;7369693;19;20025;-61
2023/07/17 07:41:04;;;;;;;13.15;5.55;;;19.60;99.90;;;;;;7365497;19;20018;-61
2023/07/17 07:43:30;;;;;;;12.50;4.85;;;19.80;99.90;;;;;;7369972;19;20018;-61
2023/07/17 07:45:56;;;;;;;13.15;5.38;;;19.60;99.90;;;;;;7369117;19;20022;-61
2023/07/17 07:48:22;;;;;;;10.68;4.90;;;19.80;99.90;;;;;;7374600;19;20051;-64
2023/07/17 07:50:49;;;;;;;10.32;4.82;;;19.80;99.90;;;;;;7372183;19;20013;-61
2023/07/17 07:53:15;;;;;;;11.55;5.55;;;19.90;99.90;;;;;;7370936;19;20064;-62
2023/07/17 07:55:41;;;;;;;10.45;4.75;;;20.10;99.90;;;;;;7372349;19;20047;-62
2023/07/17 07:58:07;;;;;;;10.25;4.78;;;20.50;99.90;;;;;;7374049;19;20023;-61
2023/07/17 08:00:34;;;;;;;8.57;4.60;;;20.90;99.90;;;;;;7375989;19;20501;-62
2023/07/17 08:03:00;;;;;;;9.50;4.50;;;21.20;99.90;;;;;;7363769;19;20028;-62
2023/07/17 08:05:27;;;;;;;8.18;4.82;;;20.80;99.90;;;;;;7370792;19;20074;-61
2023/07/17 08:07:53;;;;;;;8.43;4.40;;;20.80;99.90;;;;;;7373903;19;20561;-62
2023/07/17 08:10:19;;;;;;;12.30;4.72;;;20.90;99.90;;;;;;7373824;19;20378;-61
2023/07/17 08:12:46;;;;;;;10.98;4.55;;;21.10;99.90;;;;;;7367136;19;20035;-59
2023/07/17 08:15:12;;;;;;;9.48;4.00;;;21.00;99.90;;;;;;7371384;19;20534;-59
2023/07/17 08:17:39;;;;;;;7.85;4.45;;;20.70;99.90;;;;;;7368141;19;20006;-59
2023/07/17 08:20:06;;;;;;;11.70;4.72;;;21.00;99.90;;;;;;7371172;19;20026;-58
2023/07/17 08:22:33;;;;;;;11.13;5.07;;;20.80;99.90;;;;;;7370940;19;20627;-60
2023/07/17 08:24:59;;;;;;;11.20;4.25;;;20.50;99.90;;;;;;7379975;19;20039;-61
2023/07/17 08:27:26;;;;;;;12.35;4.47;;;20.50;99.90;;;;;;7378511;19;20053;-62
2023/07/17 08:29:52;;;;;;;10.23;4.72;;;20.10;99.90;;;;;;7374779;19;20010;-60
2023/07/17 08:32:18;;;;;;;8.57;4.32;;;20.00;99.90;;;;;;7375499;19;20022;-58
2023/07/17 08:34:45;;;;;;;9.15;4.57;;;20.00;99.90;;;;;;7371516;19;20015;-58
2023/07/17 08:37:11;;;;;;;12.13;5.05;;;20.10;99.90;;;;;;7371635;19;20636;-57
2023/07/17 08:39:37;;;;;;;9.80;4.97;;;20.00;99.90;;;;;;7374255;19;20388;-58
2023/07/17 08:42:04;;;;;;;9.70;4.30;;;20.40;99.90;;;;;;7374646;19;20057;-58
2023/07/17 08:44:30;;;;;;;10.13;4.35;;;21.00;99.90;;;;;;7374173;19;20022;-58
2023/07/17 08:46:58;;;;;;;8.23;4.55;;;20.90;99.90;;;;;;7371094;19;20023;-61
2023/07/17 08:49:26;;;;;;;8.80;4.43;;;20.70;99.90;;;;;;7370979;19;20023;-58
2023/07/17 08:51:54;;;;;;;9.45;4.70;;;20.40;99.90;;;;;;7373406;19;20014;-57
2023/07/17 08:54:20;;;;;;;12.05;4.70;;;20.20;99.90;;;;;;7378494;19;20014;-58
2023/07/17 08:56:48;;;;;;;8.88;4.75;;;20.10;99.90;;;;;;7374471;19;20022;-59
2023/07/17 08:59:16;;;;;;;10.10;4.88;;;20.10;99.90;;;;;;7379316;19;20015;-61
2023/07/17 09:01:44;;;;;;;9.82;4.38;;;19.90;99.90;;;;;;7370591;19;21596;-61
2023/07/17 09:04:12;;;;;;;9.77;4.70;;;19.90;99.90;;;;;;7371884;19;20035;-60
2023/07/17 09:06:38;;;;;;;12.43;4.53;;;19.90;99.90;;;;;;7374962;19;20099;-61
2023/07/17 09:09:04;;;;;;;13.02;5.93;;;19.90;99.90;;;;;;7375040;19;21392;-60
2023/07/17 09:11:31;;;;;;;14.43;5.22;;;19.80;99.90;;;;;;7374214;19;20022;-60
2023/07/17 09:13:57;;;;;;;10.35;4.95;;;20.00;99.90;;;;;;7376698;19;20382;-58
2023/07/17 09:16:24;;;;;;;11.23;5.05;;;20.60;99.90;;;;;;7372544;19;20014;-61
2023/07/17 09:18:53;;;;;;;8.23;4.45;;;21.40;99.90;;;;;;7376144;19;20035;-57
2023/07/17 09:21:21;;;;;;;11.85;4.85;;;21.90;99.90;;;;;;7368517;19;20037;-60
2023/07/17 09:23:50;;;;;;;10.40;4.70;;;21.90;99.90;;;;;;7369143;19;20030;-61
2023/07/17 09:26:18;;;;;;;9.80;4.25;;;21.40;99.90;;;;;;7370682;19;20390;-61
2023/07/17 09:28:56;;;;;;;8.30;4.00;;;21.20;99.90;;;;;;7371162;19;20033;-61
2023/07/17 09:31:29;;;;;;;10.48;3.92;;;20.60;99.90;;;;;;7376852;19;20025;-60
2023/07/17 09:34:00;;;;;;;12.23;4.28;;;20.40;99.90;;;;;;7373183;19;20594;-61
2023/07/17 09:36:27;;;;;;;9.75;3.40;;;20.30;99.90;;;;;;7373015;19;20449;-58
2023/07/17 09:38:56;;;;;;;9.23;3.22;;;21.00;99.90;;;;;;7369644;19;20018;-59
2023/07/17 09:41:27;;;;;;;11.88;3.78;;;21.90;99.90;;;;;;7373892;19;20437;-59
2023/07/17 09:44:04;;;;;;;7.13;3.50;;;22.00;99.90;;;;;;7371179;19;20383;-59
2023/07/17 09:46:38;;;;;;;8.23;2.88;;;21.80;99.90;;;;;;7376358;19;20046;-59
2023/07/17 09:49:08;;;;;;;8.48;3.47;;;21.50;99.90;;;;;;7376439;19;20387;-58
2023/07/17 09:51:38;;;;;;;11.45;3.40;;;21.10;99.90;;;;;;7369898;19;20019;-63
2023/07/17 09:54:05;;;;;;;7.88;3.17;;;20.80;99.90;;;;;;7377630;19;20123;-65
2023/07/17 09:56:32;;;;;;;8.25;3.25;;;20.60;99.90;;;;;;7377705;19;20030;-58
2023/07/17 09:59:17;;;;;;;9.80;2.75;;;21.00;99.90;;;;;;7370515;19;20561;-58
2023/07/17 10:01:47;;;;;;;8.07;3.05;;;21.90;99.90;;;;;;7372571;19;20101;-59
2023/07/17 10:04:25;;;;;;;5.18;2.90;;;22.80;99.90;;;;;;7374194;19;20362;-59
2023/07/17 10:06:53;;;;;;;6.57;3.38;;;23.20;99.90;;;;;;7373473;19;20014;-60
2023/07/17 10:09:21;;;;;;;8.18;3.13;;;23.60;99.90;;;;;;7377631;19;20098;-60
2023/07/17 10:11:48;;;;;;;5.20;2.50;;;24.10;99.90;;;;;;7380160;19;20125;-58
2023/07/17 10:14:15;;;;;;;5.97;2.40;;;24.30;98.30;;;;;;7371854;19;20049;-58
2023/07/17 10:16:42;;;;;;;4.88;2.60;;;24.10;95.50;;;;;;7371977;19;20014;-58
2023/07/17 10:19:09;;;;;;;6.03;2.85;;;23.80;95.10;;;;;;7372914;19;20046;-59
2023/07/17 10:21:54;;;;;;;6.65;2.67;;;23.70;94.40;;;;;;7376503;19;20437;-59
2023/07/17 10:24:24;;;;;;;5.85;2.55;;;23.60;94.10;;;;;;7374279;19;20363;-58
2023/07/17 10:26:51;;;;;;;6.70;2.70;;;23.40;94.70;;;;;;7371559;19;20028;-58
2023/07/17 10:29:43;;;;;;;8.32;3.10;;;23.20;94.80;;;;;;7369384;19;20569;-59
2023/07/17 10:32:12;;;;;;;7.38;2.95;;;23.50;94.50;;;;;;7372077;19;21176;-61
2023/07/17 10:34:52;;;;;;;6.78;2.45;;;23.10;95.50;;;;;;7371878;19;20504;-60
2023/07/17 10:37:42;;;;;;;6.63;2.40;;;22.80;92.50;;;;;;7371432;19;20462;-61
2023/07/17 10:40:31;;;;;;;6.40;2.40;;;23.00;92.70;;;;;;7373345;19;20018;-61
2023/07/17 10:43:11;;;;;;;6.72;2.70;;;23.40;93.10;;;;;;7372670;19;20022;-60
2023/07/17 10:45:37;;;;;;;7.93;3.10;;;24.10;93.40;;;;;;7371574;19;20490;-61
2023/07/17 10:48:06;;;;;;;6.05;2.53;;;24.20;91.40;;;;;;7375917;19;20029;-62
2023/07/17 10:50:32;;;;;;;9.38;2.72;;;23.50;91.10;;;;;;7375901;19;20029;-61
2023/07/17 10:53:05;;;;;;;5.68;2.63;;;23.10;92.40;;;;;;7373197;19;20035;-62
2023/07/17 10:55:32;;;;;;;9.85;2.72;;;23.00;93.50;;;;;;7373883;19;20025;-61
2023/07/17 10:58:01;;;;;;;7.93;3.05;;;22.70;93.90;;;;;;7375949;19;20033;-60
2023/07/17 11:00:27;;;;;;;7.65;3.38;;;22.40;94.60;;;;;;7375052;19;20506;-61
2023/07/17 11:02:56;;;;;;;6.13;2.72;;;22.00;95.60;;;;;;7371941;19;20844;-61
2023/07/17 11:05:23;;;;;;;7.15;2.97;;;22.60;96.10;;;;;;7373520;19;20433;-62
2023/07/17 11:07:50;;;;;;;7.70;3.13;;;22.70;96.20;;;;;;7373259;19;20018;-62
2023/07/17 11:10:16;;;;;;;7.80;4.38;;;23.00;96.70;;;;;;7377426;19;20026;-62
2023/07/17 11:12:43;;;;;;;8.52;3.80;;;23.80;96.70;;;;;;7369431;19;20035;-62
2023/07/17 11:15:14;;;;;;;6.70;2.47;;;24.20;95.30;;;;;;7369733;19;20026;-61
2023/07/17 11:17:40;;;;;;;6.10;2.05;;;24.60;93.50;;;;;;7373724;19;20014;-66
2023/07/17 11:20:08;;;;;;;5.65;2.55;;;24.60;90.40;;;;;;7375180;19;20018;-61
2023/07/17 11:22:36;;;;;;;5.55;2.28;;;25.00;85.90;;;;;;7374550;19;20015;-59
2023/07/17 11:25:04;;;;;;;5.68;2.22;;;25.10;81.60;;;;;;7365200;19;20026;-59
2023/07/17 11:27:30;;;;;;;6.85;2.50;;;25.40;83.60;;;;;;7362656;19;20045;-59
2023/07/17 11:29:56;;;;;;;6.93;2.35;;;25.40;84.40;;;;;;7373716;19;20014;-59
2023/07/17 11:32:31;;;;;;;7.25;2.35;;;25.20;82.70;;;;;;7371163;19;20509;-62
2023/07/17 11:35:00;;;;;;;6.07;2.30;;;25.30;81.10;;;;;;7372896;19;20025;-62
2023/07/17 11:37:35;;;;;;;5.93;1.92;;;25.70;81.20;;;;;;7372014;19;20364;-62
2023/07/17 11:40:08;;;;;;;8.57;2.47;;;25.80;77.00;;;;;;7373117;19;20014;-61
2023/07/17 11:43:02;;;;;;;8.75;2.38;;;25.80;76.00;;;;;;7370071;19;20378;-59
2023/07/17 11:45:29;;;;;;;5.65;2.60;;;25.60;75.20;;;;;;7373790;19;20401;-59
2023/07/17 11:47:57;;;;;;;4.68;2.35;;;25.60;76.10;;;;;;7373564;19;20438;-59
2023/07/17 11:50:26;;;;;;;5.75;2.50;;;26.00;76.70;;;;;;7369964;19;20049;-60
2023/07/17 11:53:08;;;;;;;6.63;2.65;;;26.10;77.10;;;;;;7374787;19;20074;-59
2023/07/17 11:55:40;;;;;;;6.47;2.08;;;26.40;76.30;;;;;;7359129;19;20766;-58
2023/07/17 11:58:35;;;;;;;4.75;2.10;;;26.80;75.30;;;;;;7371181;19;20025;-59
2023/07/17 12:01:02;;;;;;;6.22;1.52;;;26.50;73.20;;;;;;7367751;19;20011;-61
2023/07/17 12:03:29;;;;;;;5.10;2.00;;;27.10;72.00;;;;;;7365892;19;20094;-61
2023/07/17 12:05:55;;;;;;;3.05;1.38;;;27.10;71.30;;;;;;7364681;19;20026;-61
2023/07/17 12:08:21;;;;;;;5.03;1.48;;;25.90;68.90;;;;;;7370148;19;20018;-61
2023/07/17 12:10:48;;;;;;;3.50;1.58;;;25.40;70.40;;;;;;7371187;19;20029;-58
2023/07/17 12:13:14;;;;;;;5.72;2.42;;;24.80;72.60;;;;;;7369061;19;21488;-59
2023/07/17 12:15:41;;;;;;;6.13;2.00;;;24.70;73.40;;;;;;7370201;19;20018;-59
2023/07/17 12:18:07;;;;;;;54.78;49.20;;;24.80;73.30;;;;;;7368890;19;20437;-59
2023/07/17 12:20:34;;;;;;;6.93;2.72;;;24.30;74.30;;;;;;7369814;19;20017;-61
2023/07/17 12:23:00;;;;;;;3.83;1.70;;;23.70;74.00;;;;;;7368220;19;20030;-62
2023/07/17 12:25:29;;;;;;;6.70;1.70;;;23.10;75.80;;;;;;7370867;19;20014;-61
2023/07/17 12:27:59;;;;;;;7.18;2.65;;;22.90;77.20;;;;;;7366784;19;20038;-63
2023/07/17 12:30:26;;;;;;;6.43;2.63;;;22.80;79.80;;;;;;7369961;19;20052;-57
2023/07/17 12:32:53;;;;;;;5.35;1.77;;;22.60;81.30;;;;;;7370799;19;20019;-57
2023/07/17 12:35:19;;;;;;;5.72;2.00;;;22.40;81.60;;;;;;7370135;19;20029;-58
2023/07/17 12:37:45;;;;;;;5.30;2.28;;;22.20;82.70;;;;;;7367649;19;20030;-58
2023/07/17 12:40:12;;;;;;;5.68;2.30;;;21.80;84.30;;;;;;7369342;19;20018;-58
2023/07/17 12:42:39;;;;;;;4.53;2.20;;;21.50;86.10;;;;;;7367661;19;20014;-58
2023/07/17 12:45:06;;;;;;;4.05;1.92;;;21.30;90.90;;;;;;7369191;19;20023;-59